createdAt,value
2022-08-18T00:01:48.052Z,22.20
2022-08-18T00:06:56.803Z,22.10
2022-08-18T00:12:08.314Z,22.10
2022-08-18T00:17:17.298Z,22.20
2022-08-18T00:22:26.890Z,22.00
2022-08-18T00:27:40.806Z,22.10
2022-08-18T00:32:55.459Z,22.00
2022-08-18T00:38:06.777Z,22.00
2022-08-18T00:43:28.393Z,21.80
2022-08-18T00:48:36.088Z,21.90
2022-08-18T00:54:15.470Z,22.00
2022-08-18T00:59:38.804Z,21.90
2022-08-18T01:04:52.978Z,21.90
2022-08-18T01:10:04.899Z,22.00
2022-08-18T01:15:29.000Z,22.00
2022-08-18T01:20:50.674Z,21.90
2022-08-18T01:26:04.854Z,21.70
2022-08-18T01:31:17.225Z,21.70
2022-08-18T01:36:25.050Z,21.60
2022-08-18T01:41:32.864Z,21.40
2022-08-18T01:46:42.705Z,21.20
2022-08-18T01:51:51.429Z,21.00
2022-08-18T01:56:59.003Z,20.80
2022-08-18T02:02:06.171Z,21.40
2022-08-18T02:07:16.711Z,21.60
2022-08-18T02:12:24.875Z,21.30
2022-08-18T02:17:31.674Z,21.10
2022-08-18T02:22:39.090Z,21.00
2022-08-18T02:27:47.367Z,21.10
2022-08-18T02:32:54.289Z,21.20
2022-08-18T02:38:07.033Z,21.10
2022-08-18T02:43:13.530Z,21.00
2022-08-18T02:48:36.661Z,20.90
2022-08-18T02:53:47.145Z,20.90
2022-08-18T02:59:06.074Z,21.00
2022-08-18T03:04:19.250Z,21.00
2022-08-18T03:09:27.215Z,20.70
2022-08-18T03:14:35.119Z,20.50
2022-08-18T03:19:44.457Z,20.50
2022-08-18T03:24:52.906Z,20.60
2022-08-18T03:30:00.796Z,20.60
2022-08-18T03:35:10.780Z,20.70
2022-08-18T03:40:20.791Z,21.00
2022-08-18T03:45:28.904Z,21.00
2022-08-18T03:50:37.362Z,21.00
2022-08-18T03:55:45.024Z,21.10
2022-08-18T04:00:51.775Z,21.00
2022-08-18T04:06:00.254Z,21.20
2022-08-18T04:11:08.563Z,21.60
2022-08-18T04:16:17.882Z,21.60
2022-08-18T04:21:27.175Z,21.60
2022-08-18T04:26:44.018Z,21.50
2022-08-18T04:31:53.037Z,21.40
2022-08-18T04:37:00.695Z,21.40
2022-08-18T04:42:12.554Z,21.40
2022-08-18T04:47:20.972Z,21.40
2022-08-18T04:52:44.965Z,21.30
2022-08-18T04:57:52.629Z,21.40
2022-08-18T05:03:01.387Z,21.50
2022-08-18T05:08:09.482Z,21.30
2022-08-18T05:13:18.012Z,21.20
2022-08-18T05:18:26.595Z,21.20
2022-08-18T05:23:33.515Z,21.20
2022-08-18T05:28:41.557Z,21.50
2022-08-18T05:33:50.652Z,21.40
2022-08-18T05:39:26.033Z,21.50
2022-08-18T05:44:40.454Z,21.50
2022-08-18T05:49:49.555Z,21.60
2022-08-18T05:55:21.440Z,21.60
2022-08-18T06:00:29.685Z,21.60
2022-08-18T06:05:46.443Z,21.60
2022-08-18T06:10:55.386Z,21.50
2022-08-18T06:16:21.149Z,21.70
2022-08-18T06:21:41.188Z,21.60
2022-08-18T06:27:17.150Z,21.70
2022-08-18T06:32:41.841Z,21.80
2022-08-18T06:38:16.325Z,22.20
2022-08-18T06:43:23.994Z,22.30
2022-08-18T06:48:41.142Z,22.50
2022-08-18T06:54:00.759Z,22.50
2022-08-18T06:59:24.240Z,22.80
2022-08-18T07:04:44.234Z,23.00
2022-08-18T07:09:51.370Z,23.00
2022-08-18T07:15:06.000Z,23.20
2022-08-18T07:20:24.607Z,23.30
2022-08-18T07:25:41.884Z,23.30
2022-08-18T07:31:13.567Z,23.60
2022-08-18T07:36:07.409Z,23.80
2022-08-18T07:41:25.758Z,24.00
2022-08-18T07:46:48.900Z,24.60
2022-08-18T07:52:00.149Z,24.70
2022-08-18T07:57:20.250Z,25.20
2022-08-18T08:02:55.151Z,25.60
2022-08-18T08:08:25.492Z,25.40
2022-08-18T08:13:56.784Z,25.30
2022-08-18T08:20:00.068Z,25.40
2022-08-18T08:25:45.328Z,25.20
2022-08-18T08:30:33.444Z,25.40
2022-08-18T08:35:51.100Z,25.30
2022-08-18T08:41:14.389Z,25.50
2022-08-18T08:46:29.139Z,26.00
2022-08-18T08:51:44.343Z,26.20
2022-08-18T08:56:55.949Z,27.20
2022-08-18T09:02:47.974Z,27.60
2022-08-18T09:08:02.277Z,28.10
2022-08-18T09:13:49.932Z,28.30
2022-08-18T09:19:23.136Z,28.70
2022-08-18T09:24:51.006Z,28.90
2022-08-18T09:30:05.382Z,29.40
2022-08-18T09:35:34.839Z,28.90
2022-08-18T09:41:14.012Z,28.90
2022-08-18T09:46:50.257Z,29.40
2022-08-18T09:52:28.568Z,29.80
2022-08-18T09:57:43.982Z,29.70
2022-08-18T10:02:56.430Z,29.90
2022-08-18T10:08:27.029Z,29.90
2022-08-18T10:19:33.833Z,30.60
2022-08-18T10:24:46.013Z,30.70
2022-08-18T10:29:59.210Z,30.30
2022-08-18T10:35:11.138Z,30.40
2022-08-18T10:40:26.510Z,30.70
2022-08-18T10:51:21.566Z,31.10
2022-08-18T10:56:49.034Z,30.60
2022-08-18T11:02:21.158Z,31.00
2022-08-18T11:07:34.249Z,31.00
2022-08-18T11:13:08.778Z,30.80
2022-08-18T11:23:47.743Z,31.00
2022-08-18T11:28:55.950Z,31.20
2022-08-18T11:34:03.845Z,31.40
2022-08-18T11:39:16.844Z,31.60
2022-08-18T11:44:29.457Z,31.30
2022-08-18T11:49:42.274Z,31.60
2022-08-18T11:54:54.415Z,31.60
2022-08-18T12:00:06.302Z,31.20
2022-08-18T12:05:15.504Z,31.40
2022-08-18T12:10:34.657Z,31.30
2022-08-18T12:15:47.521Z,31.70
2022-08-18T12:20:54.628Z,31.50
2022-08-18T12:26:04.418Z,31.40
2022-08-18T12:31:15.174Z,31.30
2022-08-18T12:36:21.654Z,31.20
2022-08-18T12:41:28.909Z,31.10
2022-08-18T12:46:38.047Z,30.60
2022-08-18T12:56:59.813Z,29.90
2022-08-18T13:02:09.521Z,30.10
2022-08-18T13:07:19.188Z,30.00
2022-08-18T13:12:27.422Z,29.80
2022-08-18T13:17:36.760Z,29.70
2022-08-18T13:22:46.626Z,29.80
2022-08-18T13:27:57.478Z,29.40
2022-08-18T13:33:53.462Z,29.00
2022-08-18T13:38:25.549Z,28.80
2022-08-18T13:43:39.391Z,29.10
2022-08-18T13:48:48.150Z,29.30
2022-08-18T13:54:28.668Z,28.90
2022-08-18T22:56:54.001Z,17.80
2022-08-18T23:02:01.654Z,19.70
2022-08-18T23:07:11.369Z,19.70
2022-08-18T23:12:21.707Z,19.90
2022-08-18T23:17:31.402Z,19.90
2022-08-18T23:22:41.442Z,19.70
2022-08-18T23:27:53.900Z,19.60
2022-08-18T23:33:01.272Z,19.70
2022-08-18T23:38:21.835Z,19.80
2022-08-18T23:43:30.064Z,19.80
2022-08-18T23:48:40.225Z,19.80
2022-08-18T23:53:54.661Z,19.70
2022-08-18T23:59:12.763Z,19.70
